createdAt,value
2023-04-16T00:00:13.879Z,26.3
2023-04-16T00:01:15.674Z,26.2
2023-04-16T00:02:17.600Z,26.2
2023-04-16T00:03:20.239Z,26.2
2023-04-16T00:04:23.239Z,26.2
2023-04-16T00:05:25.487Z,26.2
2023-04-16T00:06:27.385Z,26.2
2023-04-16T00:07:29.228Z,26.2
2023-04-16T00:08:31.022Z,26.3
2023-04-16T00:09:33.129Z,26.2
2023-04-16T00:10:35.048Z,26.2
2023-04-16T00:11:36.971Z,26.3
2023-04-16T00:12:38.885Z,26.2
2023-04-16T00:13:40.749Z,26.2
2023-04-16T00:14:42.592Z,26.3
2023-04-16T00:15:44.504Z,26.3
2023-04-16T00:16:46.299Z,26.3
2023-04-16T00:17:48.368Z,26.3
2023-04-16T00:18:50.513Z,26.2
2023-04-16T00:19:52.308Z,26.2
2023-04-16T00:20:54.282Z,26.2
2023-04-16T00:21:56.155Z,26.2
2023-04-16T00:22:58.111Z,26.2
2023-04-16T00:23:59.959Z,26.2
2023-04-16T00:25:01.801Z,26.2
2023-04-16T00:26:03.825Z,26.2
2023-04-16T00:27:05.855Z,26.2
2023-04-16T00:28:08.677Z,26.2
2023-04-16T00:29:12.650Z,26.2
2023-04-16T00:30:14.540Z,26.2
2023-04-16T00:31:16.413Z,26.2
2023-04-16T00:32:18.617Z,26.2
2023-04-16T00:33:20.593Z,26.2
2023-04-16T00:34:22.447Z,26.2
2023-04-16T00:35:24.240Z,26.1
2023-04-16T00:36:26.273Z,26.1
2023-04-16T00:37:28.181Z,26.2
2023-04-16T00:38:30.062Z,26.1
2023-04-16T00:39:31.912Z,26.1
2023-04-16T00:40:33.726Z,26.2
2023-04-16T00:41:35.602Z,26.2
2023-04-16T00:42:37.531Z,26.1
2023-04-16T00:43:39.413Z,26.2
2023-04-16T00:44:41.255Z,26.2
2023-04-16T00:45:43.179Z,26.2
2023-04-16T00:46:45.127Z,26.1
2023-04-16T00:47:47.233Z,26.1
2023-04-16T00:48:49.242Z,26.2
2023-04-16T00:49:51.045Z,26.2
2023-04-16T00:50:52.842Z,26.1
2023-04-16T00:51:54.702Z,26.1
2023-04-16T00:52:56.578Z,26.1
2023-04-16T00:53:58.475Z,26.1
2023-04-16T00:55:00.383Z,26.1
2023-04-16T00:56:02.216Z,26.1
2023-04-16T00:57:04.073Z,26.1
2023-04-16T00:58:05.899Z,26.1
2023-04-16T00:59:08.042Z,26.1
2023-04-16T01:00:11.269Z,26.1
2023-04-16T01:01:13.130Z,26.1
2023-04-16T01:02:15.160Z,26.1
2023-04-16T01:03:17.521Z,26.1
2023-04-16T01:04:20.340Z,26.1
2023-04-16T01:05:22.768Z,26.1
2023-04-16T01:06:24.618Z,26.1
2023-04-16T01:07:26.494Z,26.1
2023-04-16T01:08:28.288Z,26.1
2023-04-16T01:09:30.195Z,26.1
2023-04-16T01:10:32.018Z,26.1
2023-04-16T01:11:33.770Z,26.1
2023-04-16T01:12:35.645Z,26.1
2023-04-16T01:13:37.464Z,26.1
2023-04-16T01:14:39.296Z,26.1
2023-04-16T01:15:41.210Z,26.1
2023-04-16T01:16:43.174Z,26.1
2023-04-16T01:17:45.101Z,26.1
2023-04-16T01:18:47.130Z,26.1
2023-04-16T01:19:48.982Z,26.1
2023-04-16T01:20:50.829Z,26.1
2023-04-16T01:21:52.738Z,26.1
2023-04-16T01:22:54.650Z,26.1
2023-04-16T01:23:56.578Z,26.1
2023-04-16T01:24:58.479Z,26.1
2023-04-16T01:26:00.289Z,26.1
2023-04-16T01:27:02.127Z,26.1
2023-04-16T01:28:04.044Z,26.1
2023-04-16T01:29:05.936Z,26.1
2023-04-16T01:30:08.623Z,26.1
2023-04-16T01:31:10.540Z,26.1
2023-04-16T01:32:12.317Z,26.1
2023-04-16T01:33:14.209Z,26.1
2023-04-16T01:34:16.104Z,26
2023-04-16T01:35:17.879Z,26
2023-04-16T01:36:19.945Z,26
2023-04-16T01:37:21.859Z,26
2023-04-16T01:38:23.907Z,26
2023-04-16T01:39:25.760Z,26
2023-04-16T01:40:27.513Z,26
2023-04-16T01:41:29.350Z,26
2023-04-16T01:42:31.216Z,26
2023-04-16T01:43:32.966Z,26
2023-04-16T01:44:34.729Z,26
2023-04-16T01:45:36.501Z,26
2023-04-16T01:46:38.497Z,26
2023-04-16T01:47:40.609Z,26
2023-04-16T01:48:42.635Z,26
2023-04-16T01:49:44.473Z,26
2023-04-16T01:50:46.380Z,26
2023-04-16T01:51:48.287Z,26
2023-04-16T01:52:50.125Z,26
2023-04-16T01:53:51.995Z,26
2023-04-16T01:54:53.828Z,26
2023-04-16T01:55:55.709Z,26
2023-04-16T01:56:57.449Z,26
2023-04-16T01:57:59.163Z,26
2023-04-16T01:59:00.851Z,26
2023-04-16T02:00:03.125Z,26
2023-04-16T02:01:05.110Z,26
2023-04-16T02:02:07.326Z,26
2023-04-16T02:03:09.716Z,26
2023-04-16T02:04:12.260Z,26
2023-04-16T02:05:14.339Z,26
2023-04-16T02:06:16.214Z,26
2023-04-16T02:07:18.107Z,26
2023-04-16T02:08:20.044Z,26
2023-04-16T02:09:22.039Z,26
2023-04-16T02:10:23.993Z,26
2023-04-16T02:11:25.841Z,26
2023-04-16T02:12:27.727Z,26
2023-04-16T02:13:29.424Z,26
2023-04-16T02:14:31.330Z,26
2023-04-16T02:15:33.172Z,26
2023-04-16T02:16:35.116Z,26
2023-04-16T02:17:37.456Z,26
2023-04-16T02:18:39.343Z,26
2023-04-16T02:19:41.079Z,26
2023-04-16T02:20:42.916Z,26
2023-04-16T02:21:44.795Z,26
2023-04-16T02:22:46.681Z,26
2023-04-16T02:23:48.584Z,26
2023-04-16T02:24:50.467Z,26
2023-04-16T02:25:52.396Z,26
2023-04-16T02:26:54.184Z,26
2023-04-16T02:27:56.141Z,26
2023-04-16T02:28:57.994Z,26
2023-04-16T02:29:59.904Z,26
2023-04-16T02:31:01.751Z,26
2023-04-16T02:32:03.701Z,26
2023-04-16T02:33:05.854Z,26
2023-04-16T02:34:08.381Z,26
2023-04-16T02:35:10.264Z,25.9
2023-04-16T02:36:12.183Z,26
2023-04-16T02:37:14.182Z,25.9
2023-04-16T02:38:16.030Z,25.9
2023-04-16T02:39:17.946Z,25.9
2023-04-16T02:40:20.058Z,25.9
2023-04-16T02:41:21.878Z,25.9
2023-04-16T02:42:23.722Z,25.9
2023-04-16T02:43:25.640Z,25.9
2023-04-16T02:44:27.341Z,25.9
2023-04-16T02:45:29.183Z,26
2023-04-16T02:46:31.102Z,26
2023-04-16T02:47:33.180Z,26
2023-04-16T02:48:35.183Z,26
2023-04-16T02:49:36.987Z,26
2023-04-16T02:50:38.835Z,25.9
2023-04-16T02:51:40.705Z,25.9
2023-04-16T02:52:42.544Z,25.9
2023-04-16T02:53:44.470Z,25.9
2023-04-16T02:54:46.267Z,25.9
2023-04-16T02:55:48.116Z,25.9
2023-04-16T02:56:49.936Z,25.9
2023-04-16T02:57:51.808Z,25.9
2023-04-16T02:58:53.710Z,25.9
2023-04-16T02:59:55.519Z,25.9
2023-04-16T03:00:57.260Z,25.9
2023-04-16T03:01:59.314Z,25.9
2023-04-16T03:03:01.626Z,25.9
2023-04-16T03:04:03.681Z,25.9
2023-04-16T03:05:05.567Z,25.9
2023-04-16T03:06:07.413Z,25.9
2023-04-16T03:07:09.260Z,25.9
2023-04-16T03:08:11.111Z,25.9
2023-04-16T03:09:13.036Z,25.9
2023-04-16T03:10:15.007Z,25.9
2023-04-16T03:11:16.889Z,25.9
2023-04-16T03:12:18.920Z,25.9
2023-04-16T03:13:20.766Z,25.9
2023-04-16T03:14:22.705Z,25.9
2023-04-16T03:15:24.488Z,25.9
2023-04-16T03:16:26.321Z,25.9
2023-04-16T03:17:28.208Z,25.9
2023-04-16T03:18:30.330Z,25.9
2023-04-16T03:19:32.288Z,25.9
2023-04-16T03:20:34.133Z,25.9
2023-04-16T03:21:35.983Z,25.9
2023-04-16T03:22:37.889Z,25.9
2023-04-16T03:23:39.736Z,25.9
2023-04-16T03:24:41.631Z,25.9
2023-04-16T03:25:43.510Z,25.9
2023-04-16T03:26:45.538Z,25.9
2023-04-16T03:27:47.386Z,25.9
2023-04-16T03:28:49.280Z,25.9
2023-04-16T03:29:51.206Z,25.9
2023-04-16T03:30:53.147Z,25.9
2023-04-16T03:31:55.093Z,25.8
2023-04-16T03:32:56.956Z,25.9
2023-04-16T03:33:58.901Z,25.9
2023-04-16T03:35:00.790Z,25.9
2023-04-16T03:36:02.699Z,25.9
2023-04-16T03:37:04.445Z,25.9
2023-04-16T03:38:06.218Z,25.9
2023-04-16T03:39:08.010Z,25.9
2023-04-16T03:40:11.190Z,25.9
2023-04-16T03:41:12.999Z,25.9
2023-04-16T03:42:14.892Z,25.9
2023-04-16T03:43:16.780Z,25.9
2023-04-16T03:44:18.657Z,25.9
2023-04-16T03:45:20.481Z,25.9
2023-04-16T03:46:22.321Z,25.9
2023-04-16T03:47:24.438Z,25.9
2023-04-16T03:48:26.432Z,25.9
2023-04-16T03:49:28.162Z,25.9
2023-04-16T03:50:30.098Z,25.9
2023-04-16T03:51:32.235Z,25.8
2023-04-16T03:52:34.140Z,25.8
2023-04-16T03:53:35.991Z,25.8
2023-04-16T03:54:37.922Z,25.8
2023-04-16T03:55:39.800Z,25.8
2023-04-16T03:56:41.644Z,25.9
2023-04-16T03:57:43.516Z,25.9
2023-04-16T03:58:45.347Z,25.8
2023-04-16T03:59:47.163Z,25.8
2023-04-16T04:00:49.054Z,25.8
2023-04-16T04:01:51.011Z,25.8
2023-04-16T04:02:53.433Z,25.8
2023-04-16T04:03:56.481Z,25.8
2023-04-16T04:04:59.603Z,25.8
2023-04-16T04:06:01.913Z,25.8
2023-04-16T04:07:03.724Z,25.8
2023-04-16T04:08:05.485Z,25.8
2023-04-16T04:09:07.477Z,25.8
2023-04-16T04:10:10.346Z,25.9
2023-04-16T04:11:12.267Z,25.9
2023-04-16T04:12:14.111Z,25.8
2023-04-16T04:13:16.049Z,25.8
2023-04-16T04:14:17.983Z,25.8
2023-04-16T04:15:19.864Z,25.8
2023-04-16T04:16:21.848Z,25.8
2023-04-16T04:17:24.053Z,25.9
2023-04-16T04:18:26.034Z,25.9
2023-04-16T04:19:27.877Z,25.9
2023-04-16T04:20:29.786Z,25.8
2023-04-16T04:21:31.704Z,25.8
2023-04-16T04:22:33.436Z,25.8
2023-04-16T04:23:35.231Z,25.8
2023-04-16T04:24:37.127Z,25.8
2023-04-16T04:25:38.985Z,25.8
2023-04-16T04:26:40.758Z,25.8
2023-04-16T04:27:42.604Z,25.8
2023-04-16T04:28:44.447Z,25.8
2023-04-16T04:29:46.316Z,25.8
2023-04-16T04:30:48.369Z,25.8
2023-04-16T04:31:50.312Z,25.8
2023-04-16T04:32:52.356Z,25.8
2023-04-16T04:33:54.298Z,25.7
2023-04-16T04:34:56.136Z,25.7
2023-04-16T04:35:57.947Z,25.6
2023-04-16T04:36:59.848Z,25.6
2023-04-16T04:38:02.492Z,25.6
2023-04-16T04:39:04.701Z,25.5
2023-04-16T04:40:06.626Z,25.5
2023-04-16T04:41:08.548Z,25.5
2023-04-16T04:42:10.438Z,25.5
2023-04-16T04:43:12.265Z,25.5
2023-04-16T04:44:14.151Z,25.5
2023-04-16T04:45:15.911Z,25.5
2023-04-16T04:46:17.871Z,25.5
2023-04-16T04:47:20.114Z,25.5
2023-04-16T04:48:22.132Z,25.6
2023-04-16T04:49:24.046Z,25.6
2023-04-16T04:50:25.841Z,25.6
2023-04-16T04:51:27.678Z,25.6
2023-04-16T04:52:29.434Z,25.6
2023-04-16T04:53:31.279Z,25.6
2023-04-16T04:54:33.163Z,25.6
2023-04-16T04:55:34.929Z,25.6
2023-04-16T04:56:36.749Z,25.6
2023-04-16T04:57:38.602Z,25.6
2023-04-16T04:58:40.531Z,25.6
2023-04-16T04:59:42.404Z,25.6
2023-04-16T05:00:44.333Z,25.6
2023-04-16T05:01:46.386Z,25.7
2023-04-16T05:02:48.329Z,25.6
2023-04-16T05:03:50.838Z,25.6
2023-04-16T05:04:53.107Z,25.6
2023-04-16T05:05:55.117Z,25.7
2023-04-16T05:06:56.977Z,25.7
2023-04-16T05:07:58.773Z,25.7
2023-04-16T05:09:00.635Z,25.7
2023-04-16T05:10:02.540Z,25.7
2023-04-16T05:11:04.469Z,25.7
2023-04-16T05:12:06.305Z,25.7
2023-04-16T05:13:08.264Z,25.7
2023-04-16T05:14:10.113Z,25.7
2023-04-16T05:15:12.027Z,25.7
2023-04-16T05:16:13.975Z,25.7
2023-04-16T05:17:16.054Z,25.7
2023-04-16T05:18:17.976Z,25.7
2023-04-16T05:19:19.994Z,25.7
2023-04-16T05:20:21.851Z,25.7
2023-04-16T05:21:23.702Z,25.7
2023-04-16T05:22:25.602Z,25.7
2023-04-16T05:23:27.530Z,25.7
2023-04-16T05:24:29.256Z,25.7
2023-04-16T05:25:31.042Z,25.8
2023-04-16T05:26:32.967Z,25.8
2023-04-16T05:27:34.954Z,25.7
2023-04-16T05:28:36.861Z,25.8
2023-04-16T05:29:38.843Z,25.8
2023-04-16T05:30:40.792Z,25.7
2023-04-16T05:31:42.711Z,25.7
2023-04-16T05:32:44.705Z,25.8
2023-04-16T05:33:46.933Z,25.8
2023-04-16T05:34:48.747Z,25.8
2023-04-16T05:35:50.691Z,25.8
2023-04-16T05:36:52.572Z,25.8
2023-04-16T05:37:54.211Z,25.8
2023-04-16T05:38:56.087Z,25.8
2023-04-16T05:39:57.920Z,25.9
2023-04-16T05:40:59.823Z,25.9
2023-04-16T05:42:01.611Z,25.9
2023-04-16T05:43:03.322Z,25.9
2023-04-16T05:44:05.231Z,25.9
2023-04-16T05:45:07.101Z,25.9
2023-04-16T05:46:09.070Z,25.9
2023-04-16T05:47:11.037Z,25.9
2023-04-16T05:48:13.119Z,25.9
2023-04-16T05:49:15.020Z,25.9
2023-04-16T05:50:16.992Z,25.9
2023-04-16T05:51:18.886Z,25.9
2023-04-16T05:52:20.732Z,25.9
2023-04-16T05:53:22.581Z,25.9
2023-04-16T05:54:24.516Z,25.9
2023-04-16T05:55:26.384Z,25.9
2023-04-16T05:56:28.135Z,25.9
2023-04-16T05:57:29.983Z,25.9
2023-04-16T05:58:31.825Z,25.9
2023-04-16T05:59:33.651Z,25.9
2023-04-16T06:00:35.517Z,25.9
2023-04-16T06:01:37.620Z,25.9
2023-04-16T06:02:39.644Z,25.9
2023-04-16T06:03:42.277Z,25.9
2023-04-16T06:04:44.531Z,25.9
2023-04-16T06:05:46.309Z,25.9
2023-04-16T06:06:48.373Z,25.9
2023-04-16T06:07:50.228Z,25.9
2023-04-16T06:08:52.136Z,25.9
2023-04-16T06:09:54.023Z,26
2023-04-16T06:10:55.876Z,26
2023-04-16T06:11:57.721Z,26
2023-04-16T06:12:59.495Z,26
2023-04-16T06:14:01.489Z,26
2023-04-16T06:15:03.390Z,26.1
2023-04-16T06:16:05.349Z,26.1
2023-04-16T06:17:07.466Z,26.1
2023-04-16T06:18:09.390Z,26.1
2023-04-16T06:19:11.709Z,26.1
2023-04-16T06:20:13.958Z,26.1
2023-04-16T06:21:15.873Z,26.1
2023-04-16T06:22:17.723Z,26.1
2023-04-16T06:23:19.515Z,26.1
2023-04-16T06:24:21.364Z,26.1
2023-04-16T06:25:23.299Z,26.1
2023-04-16T06:26:25.055Z,26.1
2023-04-16T06:27:26.906Z,26.1
2023-04-16T06:28:28.719Z,26.1
2023-04-16T06:29:40.270Z,26.1
2023-04-16T06:30:44.685Z,26.2
2023-04-16T06:31:46.726Z,26.2
2023-04-16T06:32:49.092Z,26.2
2023-04-16T06:33:51.311Z,26.2
2023-04-16T06:34:53.166Z,26.2
2023-04-16T06:35:55.020Z,26.2
2023-04-16T06:36:56.770Z,26.2
2023-04-16T06:37:58.686Z,26.2
2023-04-16T06:39:00.548Z,26.2
2023-04-16T06:40:02.327Z,26.2
2023-04-16T06:41:04.285Z,26.2
2023-04-16T06:42:06.187Z,26.2
2023-04-16T06:43:08.069Z,26.2
2023-04-16T06:44:10.036Z,26.3
2023-04-16T06:45:11.872Z,26.3
2023-04-16T06:46:13.775Z,26.3
2023-04-16T06:47:15.889Z,26.3
2023-04-16T06:48:18.076Z,26.3
2023-04-16T06:49:19.958Z,26.4
2023-04-16T06:50:21.760Z,26.4
2023-04-16T06:51:23.594Z,26.4
2023-04-16T06:52:25.431Z,26.4
2023-04-16T06:53:27.138Z,26.5
2023-04-16T06:54:29.069Z,26.5
2023-04-16T06:55:30.991Z,26.5
2023-04-16T06:56:32.841Z,26.5
2023-04-16T06:57:36.921Z,26.5
2023-04-16T06:58:39.412Z,26.5
2023-04-16T06:59:41.150Z,26.5
2023-04-16T07:00:43.024Z,26.6
2023-04-16T07:01:45.157Z,26.6
2023-04-16T07:02:47.149Z,26.6
2023-04-16T07:03:49.741Z,26.6
2023-04-16T07:04:52.659Z,26.6
2023-04-16T07:05:54.590Z,26.6
2023-04-16T07:06:56.367Z,26.7
2023-04-16T07:07:58.209Z,26.7
2023-04-16T07:09:00.071Z,26.7
2023-04-16T07:10:02.029Z,26.7
2023-04-16T07:11:04.047Z,26.7
2023-04-16T07:12:05.921Z,26.7
2023-04-16T07:13:07.781Z,26.7
2023-04-16T07:14:09.611Z,26.7
2023-04-16T07:15:11.500Z,26.7
2023-04-16T07:16:13.481Z,26.7
2023-04-16T07:17:15.483Z,26.7
2023-04-16T07:18:17.779Z,26.8
2023-04-16T07:19:22.475Z,26.8
2023-04-16T07:20:24.372Z,26.8
2023-04-16T07:21:26.309Z,26.8
2023-04-16T07:22:28.236Z,26.8
2023-04-16T07:23:30.050Z,26.8
2023-04-16T07:24:31.899Z,26.8
2023-04-16T07:25:33.757Z,26.8
2023-04-16T07:26:35.675Z,26.8
2023-04-16T07:27:37.625Z,26.9
2023-04-16T07:28:39.519Z,26.9
2023-04-16T07:29:41.368Z,26.9
2023-04-16T07:30:43.212Z,26.9
2023-04-16T07:31:45.069Z,26.9
2023-04-16T07:32:47.373Z,26.9
2023-04-16T07:33:49.473Z,26.9
2023-04-16T07:34:51.353Z,26.9
2023-04-16T07:35:53.286Z,26.9
2023-04-16T07:36:55.201Z,26.9
2023-04-16T07:37:57.142Z,27
2023-04-16T07:38:59.067Z,27
2023-04-16T07:40:00.916Z,27
2023-04-16T07:41:02.841Z,27
2023-04-16T07:42:04.577Z,27
2023-04-16T07:43:06.526Z,27
2023-04-16T07:44:08.335Z,27
2023-04-16T07:45:10.238Z,27
2023-04-16T07:46:12.143Z,27
2023-04-16T07:47:14.212Z,27
2023-04-16T07:48:16.110Z,27
2023-04-16T07:49:18.347Z,27
2023-04-16T07:50:20.254Z,27
2023-04-16T07:51:22.163Z,27
2023-04-16T07:52:24.048Z,27
2023-04-16T07:53:25.955Z,27.1
2023-04-16T07:54:29.056Z,27.1
2023-04-16T07:55:31.021Z,27.1
2023-04-16T07:56:32.741Z,27.1
2023-04-16T07:57:34.857Z,27.1
2023-04-16T07:58:36.757Z,27.1
2023-04-16T07:59:38.592Z,27.1
2023-04-16T08:00:40.462Z,27.1
2023-04-16T08:01:42.401Z,27.1
2023-04-16T08:02:44.517Z,27.1
2023-04-16T08:03:47.546Z,27.2
2023-04-16T08:04:50.301Z,27.2
2023-04-16T08:05:52.830Z,27.2
2023-04-16T08:06:54.737Z,27.2
2023-04-16T08:07:56.740Z,27.2
2023-04-16T08:08:58.679Z,27.2
2023-04-16T08:10:00.582Z,27.3
2023-04-16T08:11:02.420Z,27.3
2023-04-16T08:12:04.280Z,27.3
2023-04-16T08:13:06.190Z,27.3
2023-04-16T08:14:08.124Z,27.3
2023-04-16T08:15:10.104Z,27.3
2023-04-16T08:16:12.004Z,27.3
2023-04-16T08:17:13.947Z,27.3
2023-04-16T08:18:15.807Z,27.4
2023-04-16T08:19:17.692Z,27.4
2023-04-16T08:20:19.644Z,27.4
2023-04-16T08:21:21.569Z,27.4
2023-04-16T08:22:23.370Z,27.4
2023-04-16T08:23:25.250Z,27.4
2023-04-16T08:24:27.140Z,27.4
2023-04-16T08:25:29.015Z,27.4
2023-04-16T08:26:30.897Z,27.4
2023-04-16T08:27:32.742Z,27.4
2023-04-16T08:28:34.605Z,27.5
2023-04-16T08:29:36.495Z,27.5
2023-04-16T08:30:38.401Z,27.5
2023-04-16T08:31:40.291Z,27.5
2023-04-16T08:32:42.541Z,27.5
2023-04-16T08:33:44.599Z,27.5
2023-04-16T08:34:46.430Z,27.5
2023-04-16T08:35:48.254Z,27.5
2023-04-16T08:36:50.027Z,27.5
2023-04-16T08:37:51.867Z,27.5
2023-04-16T08:38:53.787Z,27.6
2023-04-16T08:39:55.664Z,27.6
2023-04-16T08:40:57.512Z,27.6
2023-04-16T08:41:59.279Z,27.6
2023-04-16T08:43:01.171Z,27.6
2023-04-16T08:44:02.975Z,27.6
2023-04-16T08:45:04.789Z,27.7
2023-04-16T08:46:06.609Z,27.7
2023-04-16T08:47:08.843Z,27.7
2023-04-16T08:48:11.253Z,27.7
2023-04-16T08:49:13.139Z,27.7
2023-04-16T08:50:15.067Z,27.7
2023-04-16T08:51:16.929Z,27.7
2023-04-16T08:52:18.814Z,27.7
2023-04-16T08:53:20.708Z,27.7
2023-04-16T08:54:24.650Z,27.7
2023-04-16T08:55:26.853Z,27.7
2023-04-16T08:56:28.744Z,27.8
2023-04-16T08:57:30.592Z,27.8
2023-04-16T08:58:32.487Z,27.8
2023-04-16T08:59:34.294Z,27.8
2023-04-16T09:00:36.188Z,27.8
2023-04-16T09:01:38.122Z,27.8
2023-04-16T09:02:40.568Z,27.8
2023-04-16T09:03:43.562Z,27.8
2023-04-16T09:04:46.133Z,27.8
2023-04-16T09:05:48.447Z,27.8
2023-04-16T09:06:50.330Z,27.8
2023-04-16T09:07:52.188Z,27.8
2023-04-16T09:08:54.021Z,27.8
2023-04-16T09:09:55.860Z,27.8
2023-04-16T09:10:57.751Z,27.8
2023-04-16T09:11:59.579Z,27.9
2023-04-16T09:13:01.416Z,27.9
2023-04-16T09:14:03.370Z,27.9
2023-04-16T09:15:05.112Z,27.9
2023-04-16T09:16:07.058Z,27.9
2023-04-16T09:17:09.022Z,27.9
2023-04-16T09:18:10.869Z,27.9
2023-04-16T09:19:12.942Z,27.9
2023-04-16T09:20:14.781Z,27.9
2023-04-16T09:21:16.676Z,27.9
2023-04-16T09:22:18.574Z,27.9
2023-04-16T09:23:20.523Z,28
2023-04-16T09:24:22.327Z,28
2023-04-16T09:25:24.148Z,28
2023-04-16T09:26:25.996Z,28
2023-04-16T09:27:27.936Z,28
2023-04-16T09:28:29.849Z,28
2023-04-16T09:29:31.733Z,28
2023-04-16T09:30:33.538Z,28
2023-04-16T09:31:35.534Z,28
2023-04-16T09:32:37.455Z,28
2023-04-16T09:33:39.407Z,28
2023-04-16T09:34:41.186Z,28
2023-04-16T09:35:43.047Z,28
2023-04-16T09:36:44.894Z,28
2023-04-16T09:37:46.736Z,28
2023-04-16T09:38:48.696Z,28
2023-04-16T09:39:50.548Z,28
2023-04-16T09:40:52.390Z,28
2023-04-16T09:41:54.282Z,28
2023-04-16T09:42:56.193Z,28
2023-04-16T09:43:58.285Z,28.1
2023-04-16T09:45:02.113Z,28.1
2023-04-16T09:46:08.554Z,28.1
2023-04-16T09:47:10.821Z,28.2
2023-04-16T09:48:12.723Z,28.2
2023-04-16T09:49:14.620Z,28.2
2023-04-16T09:50:18.072Z,28.1
2023-04-16T09:51:20.722Z,28.1
2023-04-16T09:52:22.582Z,28.2
2023-04-16T09:53:24.430Z,28.2
2023-04-16T09:54:26.309Z,28.2
2023-04-16T09:55:28.027Z,28.2
2023-04-16T09:56:29.824Z,28.2
2023-04-16T09:57:31.636Z,28.2
2023-04-16T09:58:33.459Z,28.2
2023-04-16T09:59:35.427Z,28.2
2023-04-16T10:00:42.244Z,28.2
2023-04-16T10:01:45.700Z,28.2
2023-04-16T10:02:49.232Z,28.2
2023-04-16T10:03:53.053Z,28.2
2023-04-16T10:04:55.894Z,28.2
2023-04-16T10:05:58.170Z,28.2
2023-04-16T10:06:59.966Z,28.2
2023-04-16T10:08:01.847Z,28.2
2023-04-16T10:09:03.830Z,28.2
2023-04-16T10:10:05.835Z,28.2
2023-04-16T10:11:07.552Z,28.2
2023-04-16T10:12:09.306Z,28.2
2023-04-16T10:13:11.197Z,28.2
2023-04-16T10:14:13.115Z,28.2
2023-04-16T10:15:14.862Z,28.2
2023-04-16T10:16:16.715Z,28.2
2023-04-16T10:17:18.654Z,28.2
2023-04-16T10:18:20.940Z,28.3
2023-04-16T10:19:22.794Z,28.3
2023-04-16T10:20:24.716Z,28.2
2023-04-16T10:21:26.542Z,28.2
2023-04-16T10:22:28.453Z,28.2
2023-04-16T10:23:30.286Z,28.2
2023-04-16T10:24:32.120Z,28.2
2023-04-16T10:25:34.103Z,28.3
2023-04-16T10:26:36.024Z,28.3
2023-04-16T10:27:37.962Z,28.3
2023-04-16T10:28:39.719Z,28.3
2023-04-16T10:29:41.548Z,28.3
2023-04-16T10:30:43.491Z,28.3
2023-04-16T10:31:45.366Z,28.3
2023-04-16T10:32:47.290Z,28.3
2023-04-16T10:33:49.180Z,28.3
2023-04-16T10:34:51.020Z,28.3
2023-04-16T10:36:04.854Z,28.3
2023-04-16T10:37:09.885Z,28.3
2023-04-16T10:38:11.796Z,28.4
2023-04-16T10:39:15.590Z,28.4
2023-04-16T10:40:19.423Z,28.4
2023-04-16T10:41:21.304Z,28.4
2023-04-16T10:42:23.128Z,28.4
2023-04-16T10:43:25.153Z,28.4
2023-04-16T10:44:27.023Z,28.4
2023-04-16T10:45:28.677Z,28.4
2023-04-16T10:46:30.580Z,28.4
2023-04-16T10:47:32.717Z,28.4
2023-04-16T10:48:42.286Z,28.4
2023-04-16T10:49:52.536Z,28.4
2023-04-16T10:50:54.413Z,28.5
2023-04-16T10:51:56.264Z,28.5
2023-04-16T10:52:58.114Z,28.5
2023-04-16T10:54:00.026Z,28.5
2023-04-16T10:55:01.985Z,28.4
2023-04-16T10:56:03.858Z,28.4
2023-04-16T10:57:05.774Z,28.4
2023-04-16T10:58:07.741Z,28.4
2023-04-16T10:59:09.823Z,28.4
2023-04-16T11:00:12.985Z,28.4
2023-04-16T11:01:14.900Z,28.4
2023-04-16T11:02:16.986Z,28.4
2023-04-16T11:03:20.291Z,28.4
2023-04-16T11:04:23.086Z,28.4
2023-04-16T11:05:25.742Z,28.4
2023-04-16T11:06:27.642Z,28.4
2023-04-16T11:07:29.703Z,28.4
2023-04-16T11:09:33.889Z,28.4
2023-04-16T11:10:35.847Z,28.4
2023-04-16T11:11:37.751Z,28.4
2023-04-16T11:12:39.634Z,28.4
2023-04-16T11:13:42.538Z,28.4
2023-04-16T11:14:45.359Z,28.4
2023-04-16T11:15:47.227Z,28.4
2023-04-16T11:16:49.078Z,28.4
2023-04-16T11:17:51.231Z,28.3
2023-04-16T11:18:55.033Z,28.4
2023-04-16T11:19:58.796Z,28.3
2023-04-16T11:21:00.700Z,28.3
2023-04-16T11:22:02.706Z,28.3
2023-04-16T11:23:04.565Z,28.3
2023-04-16T11:24:06.415Z,28.3
2023-04-16T11:25:08.333Z,28.3
2023-04-16T11:26:10.220Z,28.3
2023-04-16T11:27:11.945Z,28.3
2023-04-16T11:28:13.851Z,28.3
2023-04-16T11:29:15.772Z,28.3
2023-04-16T11:30:17.670Z,28.2
2023-04-16T11:31:19.540Z,28.3
2023-04-16T11:32:21.652Z,28.3
2023-04-16T11:33:23.888Z,28.3
2023-04-16T11:34:25.706Z,28.3
2023-04-16T11:35:27.660Z,28.2
2023-04-16T11:36:29.603Z,28.2
2023-04-16T11:37:31.476Z,28.2
2023-04-16T11:38:33.336Z,28.2
2023-04-16T11:39:35.188Z,28.2
2023-04-16T11:40:37.119Z,28.2
2023-04-16T11:41:38.995Z,28.2
2023-04-16T11:42:40.918Z,28.2
2023-04-16T11:43:43.213Z,28.2
2023-04-16T11:44:45.042Z,28.2
2023-04-16T11:45:46.988Z,28.2
2023-04-16T11:46:48.873Z,28.2
2023-04-16T11:47:51.240Z,28.2
2023-04-16T11:48:53.832Z,28.2
2023-04-16T11:49:55.736Z,28.2
2023-04-16T11:50:57.572Z,28.2
2023-04-16T11:51:59.639Z,28.2
2023-04-16T11:53:01.487Z,28.2
2023-04-16T11:54:03.369Z,28.2
2023-04-16T11:55:05.180Z,28.2
2023-04-16T11:56:06.930Z,28.2
2023-04-16T11:57:08.831Z,28.2
2023-04-16T11:58:10.736Z,28.2
2023-04-16T11:59:13.407Z,28.2
2023-04-16T12:00:16.789Z,28.2
2023-04-16T12:01:18.643Z,28.2
2023-04-16T12:02:20.600Z,28.2
2023-04-16T12:03:23.211Z,28.2
2023-04-16T12:04:25.941Z,28.2
2023-04-16T12:05:28.609Z,28.2
2023-04-16T12:06:30.345Z,28.2
2023-04-16T12:07:32.196Z,28.3
2023-04-16T12:08:34.054Z,28.3
2023-04-16T12:09:37.827Z,28.2
2023-04-16T12:10:42.650Z,28.2
2023-04-16T12:11:44.518Z,28.2
2023-04-16T12:12:46.440Z,28.2
2023-04-16T12:13:48.313Z,28.2
2023-04-16T12:14:50.188Z,28.2
2023-04-16T12:15:52.012Z,28.2
2023-04-16T12:16:53.823Z,28.2
2023-04-16T12:17:56.019Z,28.2
2023-04-16T12:18:57.975Z,28.2
2023-04-16T12:19:59.842Z,28.1
2023-04-16T12:21:01.748Z,28.2
2023-04-16T12:22:03.635Z,28.2
2023-04-16T12:23:05.516Z,28.2
2023-04-16T12:24:07.344Z,28.1
2023-04-16T12:25:09.245Z,28.1
2023-04-16T12:26:11.132Z,28.1
2023-04-16T12:27:12.995Z,28.1
2023-04-16T12:28:14.739Z,28.1
2023-04-16T12:29:16.588Z,28.1
2023-04-16T12:30:18.531Z,28.1
2023-04-16T12:31:20.468Z,28.1
2023-04-16T12:32:22.746Z,28.1
2023-04-16T12:33:24.912Z,28
2023-04-16T12:34:46.645Z,28
2023-04-16T12:35:51.504Z,28
2023-04-16T12:36:53.394Z,28
2023-04-16T12:37:55.272Z,28
2023-04-16T12:38:57.237Z,27.9
2023-04-16T12:39:59.198Z,27.9
2023-04-16T12:41:01.093Z,27.8
2023-04-16T12:42:02.949Z,27.8
2023-04-16T12:43:05.442Z,27.8
2023-04-16T12:44:07.292Z,27.8
2023-04-16T12:45:09.115Z,27.8
2023-04-16T12:46:11.081Z,27.8
2023-04-16T12:47:13.217Z,27.8
2023-04-16T12:48:15.104Z,27.8
2023-04-16T12:49:17.027Z,27.9
2023-04-16T12:50:18.670Z,27.9
2023-04-16T12:51:20.555Z,27.9
2023-04-16T12:52:23.759Z,27.9
2023-04-16T12:53:25.660Z,27.9
2023-04-16T12:54:27.498Z,27.9
2023-04-16T12:55:29.378Z,28
2023-04-16T12:56:31.249Z,28
2023-04-16T12:57:33.195Z,28
2023-04-16T12:58:35.194Z,28
2023-04-16T12:59:37.066Z,28
2023-04-16T13:00:38.950Z,28
2023-04-16T13:01:40.804Z,28
2023-04-16T13:02:42.911Z,28
2023-04-16T13:03:45.663Z,28.1
2023-04-16T13:04:48.788Z,28.1
2023-04-16T13:05:51.033Z,28.1
2023-04-16T13:06:52.981Z,28.1
2023-04-16T13:07:54.735Z,28.1
2023-04-16T13:08:56.657Z,28.1
2023-04-16T13:09:58.433Z,28.1
2023-04-16T13:11:00.281Z,28.1
2023-04-16T13:12:02.064Z,28.1
2023-04-16T13:13:03.985Z,28.1
2023-04-16T13:14:05.809Z,28.1
2023-04-16T13:15:07.606Z,28.1
2023-04-16T13:16:09.457Z,28.1
2023-04-16T13:17:11.677Z,28.1
2023-04-16T13:18:13.531Z,28.1
2023-04-16T13:19:15.378Z,28.1
2023-04-16T13:20:17.308Z,28.1
2023-04-16T13:21:19.194Z,28.1
2023-04-16T13:22:21.057Z,28.1
2023-04-16T13:23:22.889Z,28.2
2023-04-16T13:24:24.749Z,28.2
2023-04-16T13:25:26.700Z,28.2
2023-04-16T13:26:28.452Z,28.2
2023-04-16T13:27:30.296Z,28.2
2023-04-16T13:28:32.146Z,28.2
2023-04-16T13:29:34.005Z,28.2
2023-04-16T13:30:35.905Z,28.2
2023-04-16T13:31:37.831Z,28.2
2023-04-16T13:32:40.104Z,28.2
2023-04-16T13:33:42.045Z,28.2
2023-04-16T13:34:43.888Z,28.2
2023-04-16T13:35:45.598Z,28.2
2023-04-16T13:36:47.459Z,28.2
2023-04-16T13:37:49.296Z,28.2
2023-04-16T13:38:51.156Z,28.2
2023-04-16T13:39:53.049Z,28.2
2023-04-16T13:40:54.956Z,28.2
2023-04-16T13:41:56.807Z,28.2
2023-04-16T13:42:58.648Z,28.2
2023-04-16T13:44:00.515Z,28.2
2023-04-16T13:45:02.476Z,28.2
2023-04-16T13:46:04.312Z,28.2
2023-04-16T13:47:06.193Z,28.2
2023-04-16T13:48:08.551Z,28.2
2023-04-16T13:49:10.724Z,28.2
2023-04-16T13:50:13.621Z,28.2
2023-04-16T13:51:15.540Z,28.2
2023-04-16T13:52:17.371Z,28.2
2023-04-16T13:53:19.214Z,28.2
2023-04-16T13:54:21.058Z,28.2
2023-04-16T13:55:23.019Z,28.2